createdAt,value
2022-11-03T00:01:35.008Z,101147.78
2022-11-03T00:04:02.700Z,101139.38
2022-11-03T00:06:31.632Z,101132.66
2022-11-03T00:08:59.815Z,101145.09
2022-11-03T00:11:27.324Z,101139.97
2022-11-03T00:13:55.247Z,101130.81
2022-11-03T00:16:22.772Z,101128.41
2022-11-03T00:18:50.315Z,101135.38
2022-11-03T00:21:18.005Z,101126.06
2022-11-03T00:23:47.325Z,101124.53
2022-11-03T00:26:16.141Z,101115.75
2022-11-03T00:28:45.020Z,101116.56
2022-11-03T00:31:14.405Z,101114.94
2022-11-03T00:33:42.471Z,101119.66
2022-11-03T00:36:13.267Z,101108.28
2022-11-03T00:38:41.018Z,101098.97
2022-11-03T00:41:10.981Z,101088.81
2022-11-03T00:43:38.772Z,101081.84
2022-11-03T00:46:07.297Z,101084.81
2022-11-03T00:48:35.897Z,101084.22
2022-11-03T00:51:09.151Z,101088.53
2022-11-03T00:53:38.254Z,101081.59
2022-11-03T00:56:07.223Z,101092.03
2022-11-03T00:58:36.207Z,101083.97
2022-11-03T01:01:07.302Z,101092.84
2022-11-03T01:03:36.150Z,101083.00
2022-11-03T01:06:21.485Z,101086.31
2022-11-03T01:08:48.984Z,101072.16
2022-11-03T01:11:36.426Z,101067.97
2022-11-03T01:14:05.340Z,101072.41
2022-11-03T01:16:32.937Z,101073.53
2022-11-03T01:19:01.369Z,101073.50
2022-11-03T01:21:28.951Z,101063.81
2022-11-03T01:23:56.566Z,101064.91
2022-11-03T01:26:24.104Z,101060.91
2022-11-03T01:28:51.662Z,101071.97
2022-11-03T01:31:22.915Z,101068.75
2022-11-03T01:33:51.352Z,101058.38
2022-11-03T01:36:19.130Z,101057.38
2022-11-03T01:38:47.360Z,101063.19
2022-11-03T01:41:18.120Z,101057.94
2022-11-03T01:43:45.812Z,101054.88
2022-11-03T01:46:18.307Z,101055.03
2022-11-03T01:48:50.107Z,101044.75
2022-11-03T01:51:20.895Z,101034.88
2022-11-03T01:53:49.609Z,101031.53
2022-11-03T01:56:17.704Z,101031.78
2022-11-03T01:58:46.852Z,101036.53
2022-11-03T02:01:14.434Z,101029.88
2022-11-03T02:03:48.261Z,101029.31
2022-11-03T02:06:16.270Z,101020.06
2022-11-03T02:08:48.247Z,101012.94
2022-11-03T02:11:33.543Z,101016.00
2022-11-03T02:14:01.069Z,101015.56
2022-11-03T02:16:31.521Z,101001.81
2022-11-03T02:19:01.634Z,101004.13
2022-11-03T02:21:31.255Z,101003.19
2022-11-03T02:24:03.785Z,100997.94
2022-11-03T02:26:32.632Z,100995.59
2022-11-03T02:29:00.209Z,100985.75
2022-11-03T02:31:33.365Z,100989.63
2022-11-03T02:34:05.479Z,100993.63
2022-11-03T02:36:38.216Z,100978.75
2022-11-03T02:39:10.283Z,100979.88
2022-11-03T02:41:40.066Z,100975.72
2022-11-03T02:44:12.494Z,100977.78
2022-11-03T02:46:41.823Z,100975.94
2022-11-03T02:49:09.319Z,100980.09
2022-11-03T02:51:36.890Z,100980.38
2022-11-03T02:54:09.031Z,100970.94
2022-11-03T02:56:40.376Z,100967.63
2022-11-03T02:59:10.632Z,100962.19
2022-11-03T03:01:47.351Z,100953.97
2022-11-03T03:04:19.397Z,100955.53
2022-11-03T03:06:49.670Z,100959.53
2022-11-03T03:09:20.396Z,100951.56
2022-11-03T03:11:50.350Z,100939.09
2022-11-03T03:14:20.056Z,100944.50
2022-11-03T03:16:54.834Z,100933.66
2022-11-03T03:19:31.805Z,100922.56
2022-11-03T03:22:03.807Z,100924.06
2022-11-03T03:24:37.199Z,100917.06
2022-11-03T03:27:08.583Z,100919.56
2022-11-03T03:29:39.459Z,100917.34
2022-11-03T03:32:09.746Z,100909.72
2022-11-03T03:34:39.120Z,100909.38
2022-11-03T03:37:07.664Z,100913.66
2022-11-03T03:39:39.882Z,100913.19
2022-11-03T03:42:10.000Z,100905.69
2022-11-03T03:44:38.843Z,100913.13
2022-11-03T03:47:10.726Z,100903.97
2022-11-03T03:49:38.253Z,100901.34
2022-11-03T03:52:05.984Z,100902.66
2022-11-03T03:54:33.505Z,100898.72
2022-11-03T03:57:03.318Z,100904.13
2022-11-03T03:59:32.347Z,100902.69
2022-11-03T04:02:00.472Z,100899.34
2022-11-03T04:04:28.128Z,100903.41
2022-11-03T04:07:09.663Z,100893.25
2022-11-03T04:09:37.257Z,100886.00
2022-11-03T04:12:22.804Z,100877.09
2022-11-03T04:15:09.309Z,100881.56
2022-11-03T04:17:54.721Z,100885.69
2022-11-03T04:20:39.987Z,100882.78
2022-11-03T04:23:07.543Z,100884.22
2022-11-03T04:25:35.580Z,100870.38
2022-11-03T04:28:03.331Z,100887.78
2022-11-03T04:30:32.370Z,100868.50
2022-11-03T04:32:59.934Z,100878.31
2022-11-03T04:35:29.130Z,100872.06
2022-11-03T04:37:59.339Z,100864.16
2022-11-03T04:40:26.911Z,100866.84
2022-11-03T04:42:54.603Z,100871.53
2022-11-03T04:45:24.825Z,100863.81
2022-11-03T04:47:53.991Z,100862.56
2022-11-03T04:50:23.106Z,100865.56
2022-11-03T04:52:55.835Z,100852.34
2022-11-03T04:55:23.355Z,100849.16
2022-11-03T04:57:55.835Z,100847.34
2022-11-03T05:00:23.494Z,100850.50
2022-11-03T05:02:56.095Z,100839.47
2022-11-03T05:05:25.597Z,100837.38
2022-11-03T05:07:54.936Z,100838.63
2022-11-03T05:10:25.917Z,100833.38
2022-11-03T05:12:54.959Z,100831.66
2022-11-03T05:15:29.975Z,100830.25
2022-11-03T05:18:00.230Z,100820.78
2022-11-03T05:20:36.040Z,100812.19
2022-11-03T05:23:05.669Z,100822.72
2022-11-03T05:25:40.370Z,100815.56
2022-11-03T05:28:20.122Z,100816.66
2022-11-03T05:30:48.167Z,100804.56
2022-11-03T05:33:20.466Z,100803.75
2022-11-03T05:35:48.054Z,100803.03
2022-11-03T05:38:16.902Z,100793.03
2022-11-03T05:40:44.531Z,100797.06
2022-11-03T05:43:14.476Z,100789.97
2022-11-03T05:45:42.689Z,100790.22
2022-11-03T05:48:15.373Z,100788.44
2022-11-03T05:50:44.343Z,100781.88
2022-11-03T05:53:29.764Z,100778.69
2022-11-03T05:55:59.968Z,100785.47
2022-11-03T05:58:31.009Z,100778.97
2022-11-03T06:01:00.102Z,100775.50
2022-11-03T06:03:29.883Z,100779.38
2022-11-03T06:05:59.725Z,100770.63
2022-11-03T06:08:29.974Z,100771.09
2022-11-03T06:10:59.435Z,100760.31
2022-11-03T06:13:31.238Z,100752.25
2022-11-03T06:16:00.164Z,100747.59
2022-11-03T06:18:34.590Z,100741.47
2022-11-03T06:21:08.291Z,100750.16
2022-11-03T06:23:37.375Z,100738.84
2022-11-03T06:26:05.577Z,100745.63
2022-11-03T06:28:36.718Z,100746.47
2022-11-03T06:31:06.128Z,100743.88
2022-11-03T06:33:36.055Z,100743.88
2022-11-03T06:36:12.430Z,100751.09
2022-11-03T06:38:40.107Z,100743.16
2022-11-03T06:41:12.379Z,100722.00
2022-11-03T06:43:42.122Z,100734.34
2022-11-03T06:46:15.315Z,100738.75
2022-11-03T06:51:28.646Z,100737.09
2022-11-03T06:53:59.447Z,100737.81
2022-11-03T06:56:30.169Z,100726.03
2022-11-03T06:58:58.333Z,100725.19
2022-11-03T07:01:27.529Z,100725.75
2022-11-03T07:04:01.149Z,100724.66
2022-11-03T07:06:32.981Z,100724.09
2022-11-03T07:09:01.422Z,100724.09
2022-11-03T07:11:30.770Z,100726.31
2022-11-03T07:13:59.693Z,100732.66
2022-11-03T07:16:29.803Z,100714.47
2022-11-03T07:18:58.260Z,100711.00
2022-11-03T07:21:35.703Z,100704.06
2022-11-03T07:24:11.998Z,100697.41
2022-11-03T07:26:39.568Z,100687.38
2022-11-03T07:29:09.821Z,100679.66
2022-11-03T07:31:37.327Z,100681.88
2022-11-03T07:34:07.087Z,100670.19
2022-11-03T07:36:36.041Z,100670.03
2022-11-03T07:39:03.906Z,100655.63
2022-11-03T07:41:34.623Z,100648.91
2022-11-03T07:44:03.004Z,100652.19
2022-11-03T07:46:30.902Z,100650.59
2022-11-03T07:48:59.771Z,100643.47
2022-11-03T07:51:29.740Z,100642.41
2022-11-03T07:54:04.340Z,100637.06
2022-11-03T07:56:36.757Z,100638.22
2022-11-03T07:59:13.152Z,100636.16
2022-11-03T08:01:43.084Z,100628.28
2022-11-03T08:04:12.782Z,100617.34
2022-11-03T08:06:40.374Z,100618.94
2022-11-03T08:09:09.307Z,100616.72
2022-11-03T08:11:37.252Z,100620.75
2022-11-03T08:14:04.913Z,100611.28
2022-11-03T08:16:32.590Z,100601.56
2022-11-03T08:19:00.124Z,100592.41
2022-11-03T08:21:27.635Z,100592.66
2022-11-03T08:23:55.420Z,100581.13
2022-11-03T08:26:24.335Z,100576.84
2022-11-03T08:28:53.849Z,100574.19
2022-11-03T08:31:23.291Z,100580.16
2022-11-03T08:33:50.865Z,100572.53
2022-11-03T08:36:18.479Z,100567.09
2022-11-03T08:38:46.013Z,100569.22
2022-11-03T08:41:13.572Z,100566.06
2022-11-03T08:43:44.596Z,100550.44
2022-11-03T08:46:17.565Z,100547.94
2022-11-03T08:48:45.580Z,100547.09
2022-11-03T08:51:14.476Z,100556.88
2022-11-03T08:53:43.121Z,100552.75
2022-11-03T08:56:12.948Z,100542.44
2022-11-03T08:58:44.523Z,100534.44
2022-11-03T09:01:12.248Z,100546.56
2022-11-03T09:03:40.185Z,100546.03
2022-11-03T09:06:08.306Z,100554.63
2022-11-03T09:11:23.500Z,100556.28
2022-11-03T09:13:53.767Z,100564.03
2022-11-03T09:16:21.383Z,100565.50
2022-11-03T09:18:48.985Z,100557.63
2022-11-03T09:21:16.788Z,100555.44
2022-11-03T09:23:44.631Z,100553.84
2022-11-03T09:26:14.622Z,100546.19
2022-11-03T09:28:42.257Z,100532.56
2022-11-03T09:31:11.750Z,100515.47
2022-11-03T09:33:45.357Z,100509.81
2022-11-03T09:36:13.015Z,100511.75
2022-11-03T09:38:40.593Z,100503.00
2022-11-03T09:41:18.787Z,100509.09
2022-11-03T09:43:54.874Z,100504.78
2022-11-03T09:46:23.858Z,100504.69
2022-11-03T09:48:51.899Z,100503.59
2022-11-03T09:51:22.250Z,100489.31
2022-11-03T09:53:50.253Z,100481.22
2022-11-03T09:56:19.598Z,100476.81
2022-11-03T09:58:54.235Z,100476.66
2022-11-03T10:01:26.154Z,100473.00
2022-11-03T10:03:54.162Z,100459.97
2022-11-03T10:06:21.891Z,100450.72
2022-11-03T10:08:50.374Z,100445.94
2022-11-03T10:11:18.317Z,100445.56
2022-11-03T10:13:48.788Z,100443.53
2022-11-03T10:16:18.733Z,100423.75
2022-11-03T10:18:47.818Z,100424.88
2022-11-03T10:21:17.091Z,100414.13
2022-11-03T10:23:45.416Z,100414.56
2022-11-03T10:26:16.251Z,100401.66
2022-11-03T10:29:04.388Z,100395.84
2022-11-03T10:31:36.916Z,100365.88
2022-11-03T10:34:06.680Z,100350.16
2022-11-03T10:36:34.999Z,100346.53
2022-11-03T10:39:24.678Z,100347.78
2022-11-03T10:41:56.998Z,100348.19
2022-11-03T10:44:27.100Z,100351.38
2022-11-03T10:46:58.704Z,100348.91
2022-11-03T10:49:28.888Z,100365.31
2022-11-03T10:52:00.952Z,100366.59
2022-11-03T10:54:29.705Z,100358.84
2022-11-03T10:56:57.407Z,100353.53
2022-11-03T10:59:31.685Z,100352.75
2022-11-03T11:02:00.097Z,100333.09
2022-11-03T11:04:29.582Z,100328.19
2022-11-03T11:06:57.160Z,100315.81
2022-11-03T11:09:26.726Z,100308.47
2022-11-03T11:12:02.344Z,100303.53
2022-11-03T11:14:39.322Z,100300.22
2022-11-03T11:17:07.396Z,100303.13
2022-11-03T11:20:05.240Z,100285.47
2022-11-03T11:22:34.132Z,100281.56
2022-11-03T11:25:03.273Z,100281.38
2022-11-03T11:27:58.647Z,100274.38
2022-11-03T11:30:59.799Z,100263.06
2022-11-03T11:33:28.131Z,100257.53
2022-11-03T11:36:21.222Z,100257.31
2022-11-03T11:38:59.743Z,100247.69
2022-11-03T11:42:04.963Z,100245.00
2022-11-03T11:44:50.547Z,100226.47
2022-11-03T11:47:23.991Z,100218.88
2022-11-03T11:50:04.252Z,100222.16
2022-11-03T11:52:31.754Z,100229.34
2022-11-03T11:55:00.690Z,100234.47
2022-11-03T11:57:31.864Z,100233.47
2022-11-03T11:59:59.477Z,100235.09
2022-11-03T12:02:31.035Z,100241.91
2022-11-03T12:05:01.119Z,100231.22
2022-11-03T12:07:33.467Z,100233.25
2022-11-03T12:10:09.486Z,100219.31
2022-11-03T12:12:37.011Z,100221.34
2022-11-03T12:15:05.136Z,100221.75
2022-11-03T12:17:33.882Z,100216.00
2022-11-03T12:20:01.766Z,100201.19
2022-11-03T12:22:47.324Z,100194.00
2022-11-03T12:25:35.621Z,100180.19
2022-11-03T12:28:03.133Z,100172.59
2022-11-03T12:30:33.279Z,100164.16
2022-11-03T12:33:03.108Z,100152.25
2022-11-03T12:35:30.890Z,100153.47
2022-11-03T12:37:58.732Z,100136.22
2022-11-03T12:40:27.555Z,100129.63
2022-11-03T12:42:56.455Z,100125.53
2022-11-03T12:45:23.998Z,100121.88
2022-11-03T12:47:51.602Z,100117.41
2022-11-03T12:50:19.122Z,100121.72
2022-11-03T12:52:46.616Z,100110.41
2022-11-03T12:55:14.166Z,100111.19
2022-11-03T12:57:42.255Z,100104.78
2022-11-03T13:00:12.385Z,100114.19
2022-11-03T13:02:40.058Z,100106.22
2022-11-03T13:05:08.405Z,100100.44
2022-11-03T13:07:35.973Z,100090.22
2022-11-03T13:10:04.760Z,100082.53
2022-11-03T13:12:31.432Z,100073.50
2022-11-03T13:14:59.319Z,100064.44
2022-11-03T13:17:35.847Z,100047.38
2022-11-03T13:20:16.218Z,100051.47
2022-11-03T13:22:44.612Z,100055.22
2022-11-03T13:25:12.294Z,100055.50
2022-11-03T13:27:40.054Z,100049.03
2022-11-03T13:30:09.353Z,100031.50
2022-11-03T13:32:38.384Z,100011.13
2022-11-03T13:35:10.956Z,100024.63
2022-11-03T13:37:41.292Z,100009.03
2022-11-03T13:40:19.146Z,100002.69
2022-11-03T13:42:57.144Z,99983.00
2022-11-03T13:45:25.390Z,99981.59
2022-11-03T13:48:52.496Z,99978.38
2022-11-03T13:50:42.235Z,99985.06
2022-11-03T13:56:00.676Z,99972.22
2022-11-03T14:01:21.264Z,99975.13
2022-11-03T14:06:37.809Z,99947.28
2022-11-03T14:09:05.325Z,99941.03
2022-11-03T14:11:50.648Z,99939.81
2022-11-03T14:14:18.143Z,99934.72
2022-11-03T14:16:45.790Z,99929.00
2022-11-03T14:19:16.868Z,99924.50
2022-11-03T14:21:44.400Z,99923.53
2022-11-03T14:24:11.953Z,99926.97
2022-11-03T14:26:42.797Z,99914.75
2022-11-03T14:29:11.159Z,99906.41
2022-11-03T14:31:38.677Z,99897.94
2022-11-03T14:34:06.234Z,99889.53
2022-11-03T14:36:35.149Z,99876.16
2022-11-03T14:39:02.692Z,99861.72
2022-11-03T14:41:47.915Z,99870.91
2022-11-03T14:44:15.574Z,99873.63
2022-11-03T14:46:43.164Z,99874.16
2022-11-03T14:49:10.777Z,99874.88
2022-11-03T14:51:39.649Z,99873.06
2022-11-03T14:54:07.367Z,99863.41
2022-11-03T14:56:35.006Z,99863.25
2022-11-03T14:59:02.635Z,99871.72
2022-11-03T15:01:30.367Z,99859.59
2022-11-03T15:03:58.016Z,99858.06
2022-11-03T15:06:25.833Z,99842.06
2022-11-03T15:08:56.626Z,99853.28
2022-11-03T15:11:24.637Z,99843.50
2022-11-03T15:13:52.813Z,99845.00
2022-11-03T15:16:20.576Z,99840.53
2022-11-03T15:18:48.415Z,99833.13
2022-11-03T15:21:16.845Z,99838.47
2022-11-03T15:26:33.845Z,99826.63
2022-11-03T15:29:01.573Z,99827.25
2022-11-03T15:31:29.346Z,99804.63
2022-11-03T15:33:57.222Z,99814.63
2022-11-03T15:36:25.018Z,99801.84
2022-11-03T15:38:53.042Z,99802.28
2022-11-03T15:41:20.780Z,99792.59
2022-11-03T15:43:51.024Z,99789.78
2022-11-03T15:46:20.307Z,99797.44
2022-11-03T15:48:49.157Z,99786.03
2022-11-03T15:51:17.157Z,99788.59
2022-11-03T15:53:58.912Z,99786.56
2022-11-03T15:56:27.172Z,99771.41
2022-11-03T15:58:56.611Z,99775.53
2022-11-03T16:01:24.466Z,99767.94
2022-11-03T16:03:52.406Z,99772.00
2022-11-03T16:06:24.233Z,99758.25
2022-11-03T16:09:02.714Z,99754.09
2022-11-03T16:11:30.418Z,99750.09
2022-11-03T16:13:59.802Z,99731.47
2022-11-03T16:16:27.318Z,99735.47
2022-11-03T16:18:54.829Z,99729.84
2022-11-03T16:21:22.337Z,99719.78
2022-11-03T16:23:49.842Z,99721.06
2022-11-03T16:26:21.691Z,99710.19
2022-11-03T16:28:49.220Z,99717.84
2022-11-03T16:31:18.055Z,99712.97
2022-11-03T16:33:45.590Z,99712.34
2022-11-03T16:36:13.190Z,99711.31
2022-11-03T16:38:40.796Z,99706.03
2022-11-03T16:41:08.410Z,99701.06
2022-11-03T16:43:36.031Z,99695.09
2022-11-03T16:46:03.836Z,99702.53
2022-11-03T16:48:32.697Z,99695.56
2022-11-03T16:51:00.220Z,99697.88
2022-11-03T16:53:27.764Z,99701.63
2022-11-03T16:55:55.342Z,99699.34
2022-11-03T16:58:22.958Z,99702.00
2022-11-03T17:00:50.546Z,99710.63
2022-11-03T17:03:18.102Z,99699.97
2022-11-03T17:05:46.923Z,99691.56
2022-11-03T17:08:46.334Z,99688.84
2022-11-03T17:11:01.991Z,99684.16
2022-11-03T17:13:29.698Z,99685.44
2022-11-03T17:15:57.220Z,99678.50
2022-11-03T17:18:24.876Z,99682.31
2022-11-03T17:20:53.856Z,99674.78
2022-11-03T17:23:25.143Z,99670.72
2022-11-03T17:25:52.699Z,99656.56
2022-11-03T17:28:20.394Z,99647.31
2022-11-03T17:30:50.715Z,99634.22
2022-11-03T17:33:19.556Z,99626.28
2022-11-03T17:35:47.442Z,99615.19
2022-11-03T17:38:17.582Z,99604.91
2022-11-03T17:40:46.968Z,99582.75
2022-11-03T17:43:19.252Z,99594.66
2022-11-03T17:45:46.874Z,99585.50
2022-11-03T17:48:16.455Z,99593.97
2022-11-03T17:50:46.722Z,99593.75
2022-11-03T17:53:21.187Z,99594.38
2022-11-03T17:56:02.800Z,99590.28
2022-11-03T17:58:43.231Z,99592.97
2022-11-03T18:01:16.895Z,99575.50
2022-11-03T18:03:47.342Z,99566.13
2022-11-03T18:06:18.945Z,99566.13
2022-11-03T18:08:48.486Z,99560.78
2022-11-03T18:11:32.431Z,99555.47
2022-11-03T18:14:02.484Z,99553.44
2022-11-03T18:16:30.249Z,99554.50
2022-11-03T18:18:58.322Z,99551.00
2022-11-03T18:21:31.323Z,99543.63
2022-11-03T18:24:00.588Z,99538.09
2022-11-03T18:26:28.606Z,99524.31
2022-11-03T18:28:56.452Z,99522.13
2022-11-03T18:31:34.433Z,99516.78
2022-11-03T18:34:04.406Z,99522.97
2022-11-03T18:36:34.564Z,99520.69
2022-11-03T18:39:03.771Z,99516.38
2022-11-03T18:41:43.910Z,99513.31
2022-11-03T18:44:20.022Z,99507.56
2022-11-03T18:46:48.266Z,99508.81
2022-11-03T18:49:16.444Z,99510.22
2022-11-03T18:51:47.250Z,99506.09
2022-11-03T18:56:45.653Z,99546.50
2022-11-03T18:59:21.475Z,99566.19
2022-11-03T19:01:49.405Z,99557.56
2022-11-03T19:04:17.661Z,99549.13
2022-11-03T19:06:51.626Z,99541.97
2022-11-03T19:09:22.216Z,99563.88
2022-11-03T19:11:50.486Z,99590.75
2022-11-03T19:14:23.961Z,99580.09
2022-11-03T19:17:17.182Z,99564.03
2022-11-03T19:19:45.542Z,99567.38
2022-11-03T19:22:14.697Z,99556.38
2022-11-03T19:24:43.751Z,99553.44
2022-11-03T19:27:15.477Z,99526.59
2022-11-03T19:29:43.341Z,99518.00
2022-11-03T19:32:17.253Z,99517.34
2022-11-03T19:34:45.246Z,99511.63
2022-11-03T19:37:13.506Z,99505.13
2022-11-03T19:39:43.784Z,99503.75
2022-11-03T19:42:29.399Z,99492.72
2022-11-03T19:44:58.208Z,99486.97
2022-11-03T19:47:31.535Z,99494.81
2022-11-03T19:50:01.630Z,99490.50
2022-11-03T19:52:30.430Z,99478.00
2022-11-03T19:55:02.180Z,99469.56
2022-11-03T19:57:32.357Z,99476.69
2022-11-03T20:00:01.978Z,99476.16
2022-11-03T20:02:29.893Z,99474.78
2022-11-03T20:04:57.758Z,99468.38
2022-11-03T20:07:31.473Z,99464.66
2022-11-03T20:10:02.580Z,99469.22
2022-11-03T20:12:31.481Z,99459.13
2022-11-03T20:14:59.574Z,99461.22
2022-11-03T20:17:27.572Z,99459.13
2022-11-03T20:19:58.787Z,99463.28
2022-11-03T20:22:31.262Z,99450.09
2022-11-03T20:25:03.075Z,99448.91
2022-11-03T20:27:32.408Z,99450.72
2022-11-03T20:30:00.271Z,99441.84
2022-11-03T20:32:28.880Z,99441.06
2022-11-03T20:34:57.078Z,99444.53
2022-11-03T20:37:24.955Z,99431.41
2022-11-03T20:39:53.112Z,99431.22
2022-11-03T20:42:24.000Z,99422.84
2022-11-03T20:44:51.873Z,99414.84
2022-11-03T20:47:19.897Z,99416.00
2022-11-03T20:49:48.425Z,99411.47
2022-11-03T20:52:16.678Z,99408.63
2022-11-03T20:54:51.096Z,99407.59
2022-11-03T20:57:22.854Z,99399.22
2022-11-03T20:59:50.746Z,99396.16
2022-11-03T21:02:18.517Z,99397.03
2022-11-03T21:04:47.911Z,99393.97
2022-11-03T21:07:16.730Z,99384.78
2022-11-03T21:09:44.751Z,99394.03
2022-11-03T21:12:16.528Z,99385.84
2022-11-03T21:15:05.989Z,99391.19
2022-11-03T21:18:02.838Z,99391.72
2022-11-03T21:20:32.741Z,99389.59
2022-11-03T21:23:02.876Z,99387.31
2022-11-03T21:25:30.566Z,99390.66
2022-11-03T21:28:00.048Z,99400.31
2022-11-03T21:30:29.109Z,99396.38
2022-11-03T21:32:56.833Z,99397.03
2022-11-03T21:35:24.831Z,99393.94
2022-11-03T21:37:52.703Z,99400.53
2022-11-03T21:40:20.834Z,99402.91
2022-11-03T21:43:06.874Z,99403.13
2022-11-03T21:45:36.116Z,99409.66
2022-11-03T21:48:21.913Z,99400.63
2022-11-03T21:50:50.120Z,99402.25
2022-11-03T21:53:22.335Z,99395.69
2022-11-03T21:55:50.842Z,99399.47
2022-11-03T21:58:18.594Z,99393.78
2022-11-03T22:00:47.943Z,99395.84
2022-11-03T22:03:15.927Z,99398.06
2022-11-03T22:05:45.491Z,99392.97
2022-11-03T22:08:13.287Z,99397.81
2022-11-03T22:10:43.968Z,99410.97
2022-11-03T22:13:12.883Z,99423.25
2022-11-03T22:16:00.049Z,99428.56
2022-11-03T22:18:29.297Z,99426.94
2022-11-03T22:21:16.015Z,99438.44
2022-11-03T22:24:04.535Z,99446.44
2022-11-03T22:26:49.767Z,99441.09
2022-11-03T22:29:36.557Z,99447.88
2022-11-03T22:32:22.103Z,99441.53
2022-11-03T22:35:48.330Z,99435.00
2022-11-03T22:38:18.256Z,99432.34
2022-11-03T22:41:05.873Z,99417.56
2022-11-03T22:43:51.260Z,99428.75
2022-11-03T22:46:19.017Z,99442.75
2022-11-03T22:48:46.832Z,99453.66
2022-11-03T22:51:18.714Z,99459.00
2022-11-03T22:54:04.048Z,99457.34
2022-11-03T22:56:31.910Z,99456.91
2022-11-03T22:59:02.624Z,99458.31
2022-11-03T23:01:47.481Z,99465.72
2022-11-03T23:04:20.696Z,99476.81
2022-11-03T23:07:28.424Z,99482.00
2022-11-03T23:09:54.776Z,99478.66
2022-11-03T23:12:40.600Z,99465.19
2022-11-03T23:15:28.453Z,99485.38
2022-11-03T23:18:16.567Z,99502.84
2022-11-03T23:21:02.109Z,99495.91
2022-11-03T23:24:06.589Z,99488.53
2022-11-03T23:26:49.130Z,99502.91
2022-11-03T23:30:14.777Z,99499.00
2022-11-03T23:32:36.269Z,99509.50
2022-11-03T23:35:05.487Z,99518.91
2022-11-03T23:37:34.459Z,99513.59
2022-11-03T23:40:03.468Z,99510.09
2022-11-03T23:42:31.172Z,99507.06
2022-11-03T23:45:16.638Z,99516.03
2022-11-03T23:48:01.880Z,99526.25
2022-11-03T23:50:29.732Z,99526.69
2022-11-03T23:52:57.359Z,99525.41
2022-11-03T23:55:46.374Z,99526.69
2022-11-03T23:58:19.227Z,99525.28
